Time;durP1;ratioP1;P1;durP2;ratioP2;P2;SDS_P1;SDS_P2;PMS_P1;PMS_P2;Temp;Humidity;BMP_temperature;BMP_pressure;BME280_temperature;BME280_humidity;BME280_pressure;Samples;Min_cycle;Max_cycle;Signal;HPM_P1;HPM_P2
2023/01/25 00:00:42;;;;;;;19.63;14.38;;;2.70;99.90;;;;;;5095079;28;20050;-73
2023/01/25 00:03:08;;;;;;;25.70;18.58;;;2.50;99.90;;;;;;5092151;28;20481;-72
2023/01/25 00:05:34;;;;;;;22.60;16.88;;;3.30;99.90;;;;;;5097046;28;20049;-72
2023/01/25 00:08:00;;;;;;;21.95;17.35;;;2.90;99.90;;;;;;5096522;28;20400;-72
2023/01/25 00:10:25;;;;;;;22.65;17.52;;;2.40;99.90;;;;;;5095205;28;20043;-73
2023/01/25 00:12:51;;;;;;;22.98;16.40;;;2.40;99.90;;;;;;5091370;28;20050;-72
2023/01/25 00:15:17;;;;;;;27.08;19.70;;;3.40;99.90;;;;;;5097740;28;20048;-73
2023/01/25 00:17:42;;;;;;;26.60;18.95;;;2.40;99.90;;;;;;5095885;28;20055;-73
2023/01/25 00:20:09;;;;;;;24.55;17.52;;;2.40;99.90;;;;;;5093815;28;20126;-72
2023/01/25 00:22:34;;;;;;;26.75;19.92;;;2.40;99.90;;;;;;5095148;28;20055;-73
2023/01/25 00:25:00;;;;;;;25.92;19.50;;;2.50;99.90;;;;;;5096432;28;20055;-73
2023/01/25 00:27:26;;;;;;;26.15;19.05;;;2.50;99.90;;;;;;5093397;28;20126;-73
2023/01/25 00:29:51;;;;;;;26.38;19.70;;;2.40;99.90;;;;;;5096012;28;20081;-72
2023/01/25 00:32:20;;;;;;;21.63;17.00;;;2.40;99.90;;;;;;5096239;28;20047;-72
2023/01/25 00:34:48;;;;;;;25.10;19.38;;;2.40;99.90;;;;;;5096813;28;20089;-72
2023/01/25 00:37:14;;;;;;;25.83;18.80;;;2.70;99.90;;;;;;5096497;28;20040;-72
2023/01/25 00:39:40;;;;;;;25.48;19.02;;;2.90;99.90;;;;;;5095901;28;20040;-72
2023/01/25 00:42:17;;;;;;;27.40;19.30;;;2.70;99.90;;;;;;5095792;28;20802;-72
2023/01/25 00:44:42;;;;;;;25.42;18.95;;;2.50;99.90;;;;;;5094134;28;20055;-72
2023/01/25 00:47:10;;;;;;;25.55;18.20;;;2.80;99.90;;;;;;5095700;28;20049;-72
2023/01/25 00:49:36;;;;;;;23.33;17.45;;;2.50;99.90;;;;;;5094492;28;20042;-72
2023/01/25 00:52:04;;;;;;;26.65;19.02;;;3.40;99.90;;;;;;5097584;28;20052;-72
2023/01/25 00:54:29;;;;;;;26.33;19.30;;;2.50;99.90;;;;;;5096191;28;20087;-72
2023/01/25 00:56:55;;;;;;;25.33;18.77;;;2.40;99.90;;;;;;5095846;28;20618;-72
2023/01/25 00:59:22;;;;;;;29.98;20.20;;;2.50;99.90;;;;;;5096066;28;20047;-73
2023/01/25 01:01:48;;;;;;;27.23;18.63;;;2.90;99.90;;;;;;5097576;28;20123;-71
2023/01/25 01:04:14;;;;;;;24.67;17.90;;;2.50;99.90;;;;;;5094495;28;20043;-72
2023/01/25 01:06:41;;;;;;;24.05;18.52;;;2.90;99.90;;;;;;5095933;28;20055;-72
2023/01/25 01:09:12;;;;;;;28.88;19.77;;;2.50;99.90;;;;;;5095737;28;20040;-72
2023/01/25 01:11:37;;;;;;;26.85;20.20;;;2.40;99.90;;;;;;5095839;28;20051;-72
2023/01/25 01:14:03;;;;;;;25.30;18.45;;;2.30;99.90;;;;;;5095569;28;20634;-72
2023/01/25 01:16:29;;;;;;;24.27;20.02;;;2.40;99.90;;;;;;5093687;28;20104;-72
2023/01/25 01:18:54;;;;;;;32.25;21.77;;;2.60;99.90;;;;;;5090504;28;20056;-71
2023/01/25 01:21:20;;;;;;;26.30;19.25;;;2.50;99.90;;;;;;5064991;28;20071;-71
2023/01/25 01:23:46;;;;;;;29.85;21.42;;;2.40;99.90;;;;;;5093276;28;20055;-71
2023/01/25 01:26:14;;;;;;;28.70;20.50;;;2.50;99.90;;;;;;5089530;28;20698;-72
2023/01/25 01:28:40;;;;;;;29.98;20.15;;;2.50;99.90;;;;;;5090783;28;20142;-72
2023/01/25 01:31:09;;;;;;;28.90;22.25;;;2.50;99.90;;;;;;5094540;28;20159;-72
2023/01/25 01:33:35;;;;;;;25.90;19.17;;;2.40;99.90;;;;;;5094714;28;20482;-72
2023/01/25 01:36:08;;;;;;;27.40;20.75;;;2.30;99.90;;;;;;5097617;28;20044;-72
2023/01/25 01:38:34;;;;;;;27.10;19.90;;;2.30;99.90;;;;;;5097716;28;20147;-72
2023/01/25 01:41:00;;;;;;;33.40;22.23;;;2.40;99.90;;;;;;5098122;27;20044;-72
2023/01/25 01:43:25;;;;;;;25.45;20.27;;;3.10;99.90;;;;;;5095527;28;20828;-72
2023/01/25 01:45:55;;;;;;;33.28;22.00;;;2.30;99.90;;;;;;5098883;28;20050;-72
2023/01/25 01:48:35;;;;;;;34.78;21.48;;;2.30;99.90;;;;;;5096759;28;20484;-72
2023/01/25 01:51:09;;;;;;;29.85;20.50;;;2.30;99.90;;;;;;5096916;28;20563;-72
2023/01/25 01:53:35;;;;;;;32.20;22.45;;;2.20;99.90;;;;;;5097644;28;20489;-72
2023/01/25 01:56:06;;;;;;;35.17;23.77;;;2.60;99.90;;;;;;5097031;28;20047;-72
2023/01/25 01:58:32;;;;;;;33.65;22.33;;;2.10;99.90;;;;;;5099655;28;20048;-72
2023/01/25 02:00:58;;;;;;;34.78;23.13;;;2.10;99.90;;;;;;5097097;28;20070;-72
2023/01/25 02:03:25;;;;;;;32.40;24.02;;;2.40;99.90;;;;;;5099909;28;20048;-72
2023/01/25 02:05:53;;;;;;;31.45;21.48;;;2.00;99.90;;;;;;5099679;28;20048;-71
2023/01/25 02:08:20;;;;;;;31.77;24.17;;;2.00;99.90;;;;;;5098981;28;20093;-72
2023/01/25 02:10:48;;;;;;;29.65;22.25;;;2.00;99.90;;;;;;5099101;28;20591;-72
2023/01/25 02:13:14;;;;;;;31.02;21.77;;;2.50;99.90;;;;;;5098713;28;20082;-72
2023/01/25 02:15:49;;;;;;;36.85;24.35;;;2.20;99.90;;;;;;5098262;28;20508;-72
2023/01/25 02:18:15;;;;;;;36.22;23.95;;;2.10;99.90;;;;;;5099040;28;20078;-72
2023/01/25 02:20:43;;;;;;;34.63;25.90;;;2.10;99.90;;;;;;5096564;28;20039;-72
2023/01/25 02:23:28;;;;;;;36.40;24.98;;;2.10;99.90;;;;;;5099539;27;20079;-72
2023/01/25 02:26:00;;;;;;;35.13;24.05;;;2.10;99.90;;;;;;5097917;28;20051;-72
2023/01/25 02:28:39;;;;;;;38.63;25.70;;;2.00;99.90;;;;;;5099050;28;20455;-70
2023/01/25 02:31:05;;;;;;;32.88;24.05;;;2.00;99.90;;;;;;5098287;28;20413;-71
2023/01/25 02:33:31;;;;;;;32.63;22.50;;;2.00;99.90;;;;;;5096222;28;20049;-71
2023/01/25 02:36:06;;;;;;;36.92;24.65;;;2.00;99.90;;;;;;5098507;28;20039;-71
2023/01/25 02:38:40;;;;;;;30.45;20.77;;;2.00;99.90;;;;;;5097324;28;20754;-71
2023/01/25 02:41:11;;;;;;;33.03;22.33;;;2.40;99.90;;;;;;5098378;28;20097;-71
2023/01/25 02:43:37;;;;;;;37.35;26.33;;;2.90;99.90;;;;;;5098111;28;20056;-71
2023/01/25 02:46:10;;;;;;;32.45;24.88;;;2.10;99.90;;;;;;5099603;28;20056;-72
2023/01/25 02:48:36;;;;;;;36.90;26.50;;;2.10;99.90;;;;;;5092233;28;20047;-71
2023/01/25 02:51:05;;;;;;;40.97;26.40;;;2.50;99.90;;;;;;5094999;28;20042;-72
2023/01/25 02:53:31;;;;;;;38.65;24.65;;;2.00;99.90;;;;;;5088663;28;20052;-71
2023/01/25 02:55:56;;;;;;;37.47;25.40;;;2.00;99.90;;;;;;5095625;28;20043;-72
2023/01/25 02:58:22;;;;;;;41.97;26.25;;;2.00;99.90;;;;;;5094501;28;20123;-72
2023/01/25 03:00:48;;;;;;;38.78;27.08;;;2.30;99.90;;;;;;5093352;28;20043;-71
2023/01/25 03:03:13;;;;;;;43.38;28.58;;;1.90;99.90;;;;;;5088812;28;20456;-71
2023/01/25 03:05:39;;;;;;;42.08;28.35;;;2.00;99.90;;;;;;5090186;28;20155;-72
2023/01/25 03:08:05;;;;;;;41.90;28.08;;;2.30;99.90;;;;;;5096069;28;20148;-71
2023/01/25 03:10:30;;;;;;;34.58;26.92;;;1.90;99.90;;;;;;5093873;28;20341;-72
2023/01/25 03:12:56;;;;;;;40.75;27.75;;;2.10;99.90;;;;;;5094981;28;20130;-73
2023/01/25 03:15:22;;;;;;;40.67;28.35;;;1.80;99.90;;;;;;5093978;28;20047;-72
2023/01/25 03:17:47;;;;;;;38.95;28.30;;;1.90;99.90;;;;;;5095241;28;20485;-72
2023/01/25 03:20:13;;;;;;;44.45;27.70;;;1.90;99.90;;;;;;5097842;28;20415;-72
2023/01/25 03:22:39;;;;;;;38.47;27.88;;;1.80;99.90;;;;;;5093412;28;20105;-72
2023/01/25 03:25:05;;;;;;;41.88;28.40;;;2.20;99.90;;;;;;5096009;28;20051;-72
2023/01/25 03:27:31;;;;;;;41.67;28.70;;;1.70;99.90;;;;;;5097169;28;20249;-72
2023/01/25 03:29:56;;;;;;;46.13;30.02;;;2.40;99.90;;;;;;5095183;28;20602;-72
2023/01/25 03:32:22;;;;;;;48.63;30.33;;;2.30;99.90;;;;;;5096574;28;20085;-72
2023/01/25 03:34:48;;;;;;;40.38;29.45;;;1.70;99.90;;;;;;5096719;28;20075;-72
2023/01/25 03:37:14;;;;;;;44.95;30.65;;;1.70;99.90;;;;;;5095945;28;20039;-72
2023/01/25 03:39:39;;;;;;;40.33;29.42;;;1.70;99.90;;;;;;5095206;28;20513;-72
2023/01/25 03:42:05;;;;;;;40.63;28.75;;;1.70;99.90;;;;;;5077375;28;20116;-73
2023/01/25 03:44:31;;;;;;;43.85;29.00;;;1.90;99.90;;;;;;5095198;28;20043;-72
2023/01/25 03:46:57;;;;;;;43.97;28.20;;;1.70;99.90;;;;;;5095550;28;20413;-72
2023/01/25 03:49:22;;;;;;;46.63;28.98;;;2.50;99.90;;;;;;5098945;28;20082;-72
2023/01/25 03:51:48;;;;;;;44.28;31.48;;;2.10;99.90;;;;;;5096250;28;20098;-72
2023/01/25 03:54:14;;;;;;;47.67;32.92;;;2.20;99.90;;;;;;5098306;28;20044;-71
2023/01/25 03:56:40;;;;;;;45.83;30.77;;;1.70;99.90;;;;;;5095729;28;20082;-72
2023/01/25 03:59:06;;;;;;;47.90;31.60;;;2.00;99.90;;;;;;5097683;28;20040;-72
2023/01/25 04:01:32;;;;;;;47.05;33.50;;;1.80;99.90;;;;;;5093830;28;20047;-72
2023/01/25 04:03:57;;;;;;;46.38;32.33;;;2.60;99.90;;;;;;5098225;28;20043;-72
2023/01/25 04:06:23;;;;;;;50.08;32.25;;;2.00;99.90;;;;;;5095402;28;20069;-72
2023/01/25 04:08:49;;;;;;;43.25;30.45;;;1.80;99.90;;;;;;5097123;28;20043;-72
2023/01/25 04:11:14;;;;;;;50.88;32.80;;;2.70;99.90;;;;;;5092413;28;20292;-72
2023/01/25 04:13:40;;;;;;;51.33;34.80;;;2.10;99.90;;;;;;5095473;28;20065;-71
2023/01/25 04:16:08;;;;;;;54.15;34.63;;;2.50;99.90;;;;;;5096076;28;20156;-72
2023/01/25 04:18:34;;;;;;;48.03;31.00;;;1.70;99.90;;;;;;5098850;28;20929;-72
2023/01/25 04:20:59;;;;;;;59.13;35.33;;;1.70;99.90;;;;;;5096714;28;20083;-72
2023/01/25 04:23:26;;;;;;;52.90;34.53;;;1.70;99.90;;;;;;5097621;28;20401;-71
2023/01/25 04:25:56;;;;;;;54.78;34.72;;;1.60;99.90;;;;;;5097674;28;20108;-72
2023/01/25 04:28:22;;;;;;;55.10;33.50;;;1.60;99.90;;;;;;5097149;28;20485;-72
2023/01/25 04:30:48;;;;;;;50.17;32.72;;;1.60;99.90;;;;;;5094969;28;20051;-72
2023/01/25 04:33:14;;;;;;;44.63;30.77;;;1.60;99.90;;;;;;5091300;28;20044;-72
2023/01/25 04:35:40;;;;;;;45.15;28.40;;;1.50;99.90;;;;;;5097191;28;20046;-72
2023/01/25 04:38:06;;;;;;;53.38;32.78;;;1.60;99.90;;;;;;5097112;28;20758;-72
2023/01/25 04:40:31;;;;;;;50.50;32.00;;;1.50;99.90;;;;;;5094073;28;20064;-72
2023/01/25 04:42:57;;;;;;;37.70;26.88;;;2.00;99.90;;;;;;5095221;28;20059;-72
2023/01/25 04:45:24;;;;;;;47.92;31.88;;;2.00;99.90;;;;;;5094477;28;20180;-72
2023/01/25 04:47:58;;;;;;;48.00;31.17;;;1.50;99.90;;;;;;5095055;28;20051;-72
2023/01/25 04:50:24;;;;;;;49.50;33.53;;;1.80;99.90;;;;;;5093825;28;20046;-72
2023/01/25 04:52:50;;;;;;;48.40;32.42;;;1.50;99.90;;;;;;5096209;28;20051;-72
2023/01/25 04:55:16;;;;;;;47.08;31.13;;;1.50;99.90;;;;;;5096971;28;20556;-72
2023/01/25 04:57:42;;;;;;;50.53;32.70;;;1.50;99.90;;;;;;5094266;28;20070;-72
2023/01/25 05:00:09;;;;;;;54.17;34.22;;;1.60;99.90;;;;;;5096860;28;20564;-72
2023/01/25 05:02:34;;;;;;;33.72;24.30;;;1.50;99.90;;;;;;5094494;28;20494;-72
2023/01/25 05:05:00;;;;;;;43.33;28.92;;;1.50;99.90;;;;;;5092731;28;20065;-72
2023/01/25 05:07:26;;;;;;;43.50;29.10;;;1.50;99.90;;;;;;5095513;28;20073;-72
2023/01/25 05:09:51;;;;;;;50.75;35.40;;;1.60;99.90;;;;;;5097435;28;20098;-71
2023/01/25 05:12:17;;;;;;;47.35;33.17;;;1.50;99.90;;;;;;5096776;28;20497;-72
2023/01/25 05:14:43;;;;;;;47.47;31.63;;;1.50;99.90;;;;;;5095207;28;20040;-72
2023/01/25 05:17:08;;;;;;;47.40;31.10;;;1.40;99.90;;;;;;5098230;28;20052;-72
2023/01/25 05:19:34;;;;;;;42.03;27.25;;;1.40;99.90;;;;;;5101475;28;20054;-71
2023/01/25 05:22:02;;;;;;;46.20;32.08;;;1.40;99.90;;;;;;5100551;28;20051;-72
2023/01/25 05:24:30;;;;;;;51.35;32.53;;;1.70;99.90;;;;;;5098750;28;20039;-71
2023/01/25 05:26:59;;;;;;;43.03;29.00;;;1.90;99.90;;;;;;5097069;28;20047;-72
2023/01/25 05:29:30;;;;;;;48.92;32.70;;;1.70;99.90;;;;;;5099507;28;20150;-72
2023/01/25 05:31:56;;;;;;;51.28;35.03;;;1.50;99.90;;;;;;5097488;28;20571;-72
2023/01/25 05:34:22;;;;;;;50.50;29.65;;;2.00;99.90;;;;;;5096395;28;20062;-72
2023/01/25 05:36:48;;;;;;;45.13;33.28;;;1.60;99.90;;;;;;5098225;28;20044;-72
2023/01/25 05:39:13;;;;;;;51.63;33.35;;;1.90;99.90;;;;;;5098391;28;20625;-72
2023/01/25 05:41:39;;;;;;;47.22;31.23;;;1.60;99.90;;;;;;5094843;28;20497;-72
2023/01/25 05:44:05;;;;;;;50.67;35.10;;;1.60;99.90;;;;;;5099679;28;20921;-72
2023/01/25 05:46:30;;;;;;;52.58;33.75;;;1.60;99.90;;;;;;5098058;28;20202;-72
2023/01/25 05:48:56;;;;;;;48.25;30.73;;;1.60;99.90;;;;;;5100082;28;20047;-72
2023/01/25 05:51:22;;;;;;;45.92;33.03;;;2.30;99.90;;;;;;5100215;28;21115;-72
2023/01/25 05:53:47;;;;;;;57.22;34.53;;;1.60;99.90;;;;;;5099569;28;20083;-72
2023/01/25 05:56:13;;;;;;;46.40;31.67;;;1.60;99.90;;;;;;5098179;28;20055;-72
2023/01/25 05:58:39;;;;;;;49.47;32.38;;;2.70;99.90;;;;;;5096775;28;20066;-72
2023/01/25 06:01:06;;;;;;;52.60;33.28;;;2.10;99.90;;;;;;5098406;28;20044;-73
2023/01/25 06:03:32;;;;;;;53.70;32.22;;;2.00;99.90;;;;;;5100146;28;20053;-72
2023/01/25 06:06:01;;;;;;;53.00;34.78;;;2.00;99.90;;;;;;5100898;27;20436;-72
2023/01/25 06:08:28;;;;;;;40.55;28.08;;;1.50;99.90;;;;;;5098175;28;20556;-72
2023/01/25 06:10:54;;;;;;;50.72;33.42;;;1.50;99.90;;;;;;5094878;28;20047;-73
2023/01/25 06:13:21;;;;;;;50.53;32.40;;;2.50;99.90;;;;;;5091707;28;20176;-73
2023/01/25 06:15:54;;;;;;;43.40;31.85;;;1.40;99.90;;;;;;5095838;28;20587;-73
2023/01/25 06:18:20;;;;;;;;;;;1.40;99.90;;;;;;5095426;28;20052;-73
2023/01/25 06:20:46;;;;;;;46.97;29.88;;;1.30;99.90;;;;;;5091759;28;19924;-73
2023/01/25 06:23:12;;;;;;;47.30;31.13;;;1.20;99.90;;;;;;5096380;28;20120;-73
2023/01/25 06:25:38;;;;;;;44.58;29.58;;;1.30;99.90;;;;;;5092182;28;20047;-73
2023/01/25 06:28:04;;;;;;;42.58;29.90;;;1.30;99.90;;;;;;5097105;28;20051;-73
2023/01/25 06:30:30;;;;;;;36.45;25.83;;;1.30;99.90;;;;;;5090956;28;20530;-73
2023/01/25 06:32:59;;;;;;;42.65;28.13;;;1.30;99.90;;;;;;5096018;28;20059;-73
2023/01/25 06:35:24;;;;;;;45.83;30.67;;;1.40;99.90;;;;;;5093958;28;20051;-73
2023/01/25 06:37:50;;;;;;;43.08;29.77;;;1.40;99.90;;;;;;5097609;28;20540;-72
2023/01/25 06:40:16;;;;;;;43.60;29.90;;;1.30;99.90;;;;;;5096491;28;20413;-71
2023/01/25 06:42:42;;;;;;;49.15;30.05;;;1.30;99.90;;;;;;5097575;28;20160;-71
2023/01/25 06:45:08;;;;;;;42.08;28.05;;;1.50;99.90;;;;;;5094549;28;20051;-71
2023/01/25 06:47:34;;;;;;;44.20;28.40;;;1.30;99.90;;;;;;5090429;28;20047;-72
2023/01/25 06:50:00;;;;;;;38.28;26.23;;;1.50;99.90;;;;;;5094908;28;20524;-72
2023/01/25 06:52:25;;;;;;;46.08;30.30;;;1.40;99.90;;;;;;5098757;28;20040;-71
2023/01/25 06:54:51;;;;;;;43.67;30.48;;;1.40;99.90;;;;;;5094830;28;20485;-72
2023/01/25 06:57:17;;;;;;;42.50;28.55;;;1.30;99.90;;;;;;5086971;28;20336;-71
2023/01/25 06:59:42;;;;;;;38.25;27.05;;;1.30;99.90;;;;;;5099700;28;20043;-71
2023/01/25 07:02:14;;;;;;;39.65;27.25;;;2.10;99.90;;;;;;5094979;28;20127;-72
2023/01/25 07:04:39;;;;;;;38.75;25.75;;;1.30;99.90;;;;;;5099891;28;20044;-72
2023/01/25 07:07:08;;;;;;;36.47;26.85;;;1.40;99.90;;;;;;5094635;28;20137;-72
2023/01/25 07:09:34;;;;;;;37.67;26.63;;;2.10;99.90;;;;;;5095724;28;20072;-73
2023/01/25 07:12:00;;;;;;;40.50;28.23;;;1.30;99.90;;;;;;5098790;28;20078;-72
2023/01/25 07:14:27;;;;;;;41.42;28.35;;;1.20;99.90;;;;;;5086188;28;20730;-73
2023/01/25 07:16:52;;;;;;;39.17;27.10;;;2.50;99.90;;;;;;5093641;28;20055;-73
2023/01/25 07:19:18;;;;;;;37.40;26.10;;;2.10;99.90;;;;;;5091422;28;20052;-71
2023/01/25 07:21:45;;;;;;;36.53;26.25;;;1.20;99.90;;;;;;5093561;28;20496;-72
2023/01/25 07:24:14;;;;;;;40.83;26.38;;;1.20;99.90;;;;;;5088426;28;20078;-72
2023/01/25 07:26:40;;;;;;;38.45;26.95;;;1.20;99.90;;;;;;5092521;28;20055;-72
2023/01/25 07:29:05;;;;;;;37.92;24.90;;;1.20;99.90;;;;;;5085823;28;20044;-73
2023/01/25 07:31:31;;;;;;;34.88;25.40;;;1.30;99.90;;;;;;5091352;28;20052;-72
2023/01/25 07:33:57;;;;;;;39.42;27.33;;;1.30;99.90;;;;;;5088870;28;20048;-74
2023/01/25 07:36:24;;;;;;;40.92;28.25;;;1.30;99.90;;;;;;5089455;28;20051;-73
2023/01/25 07:38:55;;;;;;;38.92;27.15;;;1.40;99.90;;;;;;5085593;28;20131;-73
2023/01/25 07:41:22;;;;;;;36.47;26.70;;;1.30;99.90;;;;;;5081168;28;20147;-72
2023/01/25 07:43:47;;;;;;;43.25;28.05;;;1.30;99.90;;;;;;5079949;28;20059;-72
2023/01/25 07:46:14;;;;;;;36.22;25.52;;;1.30;99.90;;;;;;5077328;28;20048;-72
2023/01/25 07:48:46;;;;;;;40.63;28.08;;;1.50;99.90;;;;;;5086480;28;20128;-73
2023/01/25 07:51:30;;;;;;;38.80;27.73;;;1.70;99.90;;;;;;5099112;28;20051;-72
2023/01/25 07:53:58;;;;;;;34.17;25.98;;;1.70;99.90;;;;;;5100916;28;20050;-73
2023/01/25 07:56:26;;;;;;;38.80;28.67;;;1.20;99.90;;;;;;5085609;28;20248;-72
2023/01/25 07:58:54;;;;;;;41.10;28.45;;;1.80;99.90;;;;;;5099796;28;20059;-72
2023/01/25 08:01:22;;;;;;;42.85;29.38;;;1.10;99.90;;;;;;5070314;28;20070;-72
2023/01/25 08:03:49;;;;;;;43.13;31.00;;;1.10;99.90;;;;;;5085565;28;20048;-72
2023/01/25 08:06:15;;;;;;;41.60;26.65;;;1.20;99.90;;;;;;5087830;28;20139;-72
2023/01/25 08:08:47;;;;;;;41.17;28.08;;;1.20;99.90;;;;;;5096502;28;20047;-72
2023/01/25 08:11:20;;;;;;;40.17;28.23;;;1.10;99.90;;;;;;5087580;28;20058;-74
2023/01/25 08:13:46;;;;;;;40.20;26.80;;;1.10;99.90;;;;;;5085887;28;20048;-71
2023/01/25 08:16:16;;;;;;;39.67;28.60;;;1.10;99.90;;;;;;5080278;28;20044;-72
2023/01/25 08:18:45;;;;;;;41.90;27.63;;;1.10;99.90;;;;;;5089546;28;20047;-73
2023/01/25 08:21:11;;;;;;;38.58;27.23;;;1.40;99.90;;;;;;5086281;28;20114;-72
2023/01/25 08:23:37;;;;;;;40.40;26.30;;;1.90;99.90;;;;;;5099954;28;20125;-70
2023/01/25 08:26:07;;;;;;;42.35;30.00;;;1.40;99.90;;;;;;5095257;28;20083;-73
2023/01/25 08:28:35;;;;;;;38.42;28.52;;;1.20;99.90;;;;;;5082956;28;20439;-72
2023/01/25 08:31:12;;;;;;;38.60;27.30;;;1.20;99.90;;;;;;5089451;28;20168;-73
2023/01/25 08:33:39;;;;;;;44.33;29.40;;;1.10;99.90;;;;;;5098352;28;20051;-71
2023/01/25 08:36:07;;;;;;;44.22;28.95;;;1.20;99.90;;;;;;5094195;28;20055;-71
2023/01/25 08:38:33;;;;;;;39.95;26.20;;;1.10;99.90;;;;;;5085182;28;20140;-73
2023/01/25 08:41:07;;;;;;;36.78;26.50;;;1.00;99.90;;;;;;5091125;28;20765;-72
2023/01/25 08:43:33;;;;;;;37.78;26.30;;;1.00;99.90;;;;;;5095888;28;20050;-72
2023/01/25 08:45:59;;;;;;;37.20;26.13;;;1.60;99.90;;;;;;5099543;28;20541;-74
2023/01/25 08:48:25;;;;;;;45.10;29.52;;;1.10;99.90;;;;;;5100364;28;20043;-72
2023/01/25 08:50:51;;;;;;;32.00;24.02;;;0.90;99.90;;;;;;5102748;28;20382;-72
2023/01/25 08:53:16;;;;;;;41.53;27.38;;;1.00;99.90;;;;;;5101451;28;20062;-73
2023/01/25 08:55:42;;;;;;;42.08;27.95;;;1.60;99.90;;;;;;5100663;28;20055;-77
2023/01/25 08:58:10;;;;;;;43.78;28.02;;;2.00;99.90;;;;;;5084717;28;20782;-73
2023/01/25 09:00:40;;;;;;;46.55;30.20;;;1.30;99.90;;;;;;5083186;28;20588;-73
2023/01/25 09:03:09;;;;;;;44.63;29.38;;;1.00;99.90;;;;;;5093193;28;20052;-73
2023/01/25 09:05:37;;;;;;;43.90;30.50;;;2.00;99.90;;;;;;5102739;28;20130;-72
2023/01/25 09:08:05;;;;;;;44.50;29.70;;;1.00;99.90;;;;;;5094718;28;20140;-73
2023/01/25 09:10:31;;;;;;;42.88;29.08;;;1.00;99.90;;;;;;5102460;28;20043;-73
2023/01/25 09:12:57;;;;;;;42.22;26.40;;;1.10;99.90;;;;;;5102177;28;20053;-73
2023/01/25 09:15:22;;;;;;;42.30;30.50;;;1.10;99.90;;;;;;5096521;28;20100;-73
2023/01/25 09:17:53;;;;;;;41.95;28.17;;;1.10;99.90;;;;;;5087025;28;20048;-72
2023/01/25 09:20:19;;;;;;;38.15;27.60;;;1.40;99.90;;;;;;5086293;28;20060;-73
2023/01/25 09:22:45;;;;;;;40.33;27.65;;;1.10;99.90;;;;;;5101471;28;20071;-73
2023/01/25 09:25:11;;;;;;;44.22;29.25;;;1.20;99.90;;;;;;5084329;28;20548;-72
2023/01/25 09:27:37;;;;;;;42.95;29.45;;;1.20;99.90;;;;;;5098496;28;20124;-73
2023/01/25 09:30:04;;;;;;;44.17;27.98;;;1.10;99.90;;;;;;5089983;28;20061;-73
2023/01/25 09:32:29;;;;;;;46.95;31.27;;;1.20;99.90;;;;;;5093239;28;20073;-73
2023/01/25 09:34:55;;;;;;;44.88;31.40;;;1.20;99.90;;;;;;5099802;28;20576;-73
2023/01/25 09:37:21;;;;;;;50.50;32.78;;;1.10;99.90;;;;;;5090563;28;20048;-73
2023/01/25 09:39:46;;;;;;;42.58;29.40;;;2.00;99.90;;;;;;5100451;28;20564;-73
2023/01/25 09:42:22;;;;;;;41.67;27.40;;;1.30;99.90;;;;;;5093934;28;20107;-73
2023/01/25 09:44:47;;;;;;;41.70;29.38;;;1.10;99.90;;;;;;5099842;28;20051;-72
2023/01/25 09:47:16;;;;;;;43.80;30.70;;;1.10;99.90;;;;;;5100756;28;20115;-72
2023/01/25 09:50:14;;;;;;;49.08;31.63;;;1.10;99.90;;;;;;5100086;28;20050;-73
2023/01/25 09:52:45;;;;;;;47.53;30.25;;;1.40;99.90;;;;;;5087061;28;20052;-73
2023/01/25 09:55:14;;;;;;;39.42;28.70;;;1.10;99.90;;;;;;5094891;28;20492;-73
2023/01/25 09:57:44;;;;;;;43.33;31.98;;;1.10;99.90;;;;;;5096924;28;20109;-73
2023/01/25 10:00:22;;;;;;;48.97;32.63;;;1.20;99.90;;;;;;5102512;28;20036;-73
2023/01/25 10:03:01;;;;;;;44.03;30.45;;;1.20;99.90;;;;;;5101277;28;20086;-72
2023/01/25 10:05:31;;;;;;;44.33;29.52;;;1.70;99.90;;;;;;5082857;28;20179;-72
2023/01/25 10:08:04;;;;;;;36.80;24.95;;;1.50;99.90;;;;;;5092448;28;20098;-73
2023/01/25 10:10:38;;;;;;;47.03;30.67;;;1.60;99.90;;;;;;5093560;28;20052;-73
2023/01/25 10:13:13;;;;;;;42.17;29.35;;;1.90;99.90;;;;;;5099209;28;20129;-73
2023/01/25 10:15:42;;;;;;;45.95;32.08;;;1.30;99.90;;;;;;5097678;28;20178;-74
2023/01/25 10:18:17;;;;;;;43.47;29.92;;;1.90;99.90;;;;;;5101162;28;20141;-73
2023/01/25 10:20:52;;;;;;;39.85;28.73;;;1.30;99.90;;;;;;5083641;28;20409;-73
2023/01/25 10:23:24;;;;;;;43.92;28.90;;;1.40;99.90;;;;;;5099893;28;20039;-73
2023/01/25 10:26:00;;;;;;;39.45;26.85;;;1.30;99.90;;;;;;5099003;28;20047;-73
2023/01/25 10:28:54;;;;;;;43.35;29.15;;;1.30;99.90;;;;;;5101440;28;20043;-72
2023/01/25 10:31:40;;;;;;;42.42;29.70;;;1.30;99.90;;;;;;5097419;28;20487;-72
2023/01/25 10:34:16;;;;;;;52.35;33.17;;;1.20;99.90;;;;;;5098084;28;20130;-73
2023/01/25 10:36:45;;;;;;;43.42;27.67;;;1.30;99.90;;;;;;5100478;28;20054;-72
2023/01/25 10:39:10;;;;;;;53.72;31.92;;;1.20;99.90;;;;;;5095577;28;20361;-72
2023/01/25 10:41:58;;;;;;;42.78;28.95;;;1.20;99.90;;;;;;5101343;28;20535;-73
2023/01/25 10:44:27;;;;;;;48.47;29.63;;;1.50;99.90;;;;;;5098665;28;20044;-73
2023/01/25 10:47:19;;;;;;;37.30;25.95;;;1.70;99.90;;;;;;5091212;28;20044;-73
2023/01/25 10:49:51;;;;;;;41.50;25.83;;;1.60;99.90;;;;;;5085048;28;20059;-72
2023/01/25 10:52:20;;;;;;;41.45;26.15;;;1.20;99.90;;;;;;5098030;28;20055;-72
2023/01/25 10:54:49;;;;;;;36.38;26.55;;;1.20;99.90;;;;;;5096919;28;20051;-73
2023/01/25 10:57:19;;;;;;;42.03;27.40;;;1.20;99.90;;;;;;5099264;28;20048;-73
2023/01/25 10:59:49;;;;;;;39.45;25.92;;;1.10;99.90;;;;;;5096246;28;20047;-73
2023/01/25 11:02:37;;;;;;;42.08;26.73;;;1.10;99.90;;;;;;5096271;28;20044;-73
2023/01/25 11:05:29;;;;;;;43.80;29.35;;;1.10;99.90;;;;;;5099099;28;20083;-73
2023/01/25 11:07:56;;;;;;;49.72;30.40;;;1.10;99.90;;;;;;5085403;28;20055;-73
2023/01/25 11:10:29;;;;;;;46.22;28.27;;;1.20;99.90;;;;;;5094879;28;20036;-73
2023/01/25 11:13:19;;;;;;;43.47;28.30;;;1.10;99.90;;;;;;5095948;28;20043;-73
2023/01/25 11:16:00;;;;;;;44.35;29.25;;;1.10;99.90;;;;;;5089376;28;20549;-72
2023/01/25 11:18:32;;;;;;;43.47;28.23;;;1.20;99.90;;;;;;5095930;28;20059;-73
2023/01/25 11:21:10;;;;;;;40.78;27.35;;;1.90;99.90;;;;;;5095938;28;20044;-73
2023/01/25 11:23:36;;;;;;;43.30;28.65;;;1.10;99.90;;;;;;5096012;28;20043;-72
2023/01/25 11:26:18;;;;;;;34.30;26.45;;;1.20;99.90;;;;;;5093639;28;20093;-72
2023/01/25 11:28:47;;;;;;;45.00;30.15;;;2.50;99.90;;;;;;5093454;28;20089;-75
2023/01/25 11:31:20;;;;;;;43.42;27.95;;;1.20;99.90;;;;;;5097660;28;20051;-73
2023/01/25 11:33:46;;;;;;;49.22;30.02;;;1.20;99.90;;;;;;5090496;28;20119;-73
2023/01/25 11:36:15;;;;;;;41.63;27.05;;;1.20;99.90;;;;;;5099374;28;20245;-73
2023/01/25 11:39:25;;;;;;;42.10;29.50;;;1.20;99.90;;;;;;5091892;28;20047;-73
2023/01/25 11:42:05;;;;;;;44.75;27.35;;;1.10;99.90;;;;;;5092510;28;20467;-73
2023/01/25 11:44:39;;;;;;;49.08;28.65;;;1.20;99.90;;;;;;5099031;28;20498;-74
2023/01/25 11:47:36;;;;;;;42.60;28.90;;;1.20;99.90;;;;;;5093650;28;20052;-72
2023/01/25 11:50:41;;;;;;;44.20;26.52;;;1.30;99.90;;;;;;5095087;28;20073;-73
2023/01/25 11:53:44;;;;;;;39.67;28.15;;;1.30;99.90;;;;;;5096256;28;20556;-74
2023/01/25 11:56:27;;;;;;;47.30;28.10;;;1.30;99.90;;;;;;5087214;28;20548;-72
2023/01/25 11:59:00;;;;;;;49.88;30.10;;;1.20;99.90;;;;;;5091048;28;20046;-72
2023/01/25 12:01:33;;;;;;;39.40;25.80;;;1.20;99.90;;;;;;5093298;28;20043;-73
2023/01/25 12:04:16;;;;;;;;;;;1.20;99.90;;;;;;5094579;28;20802;-73
2023/01/25 12:06:45;;;;;;;34.20;25.10;;;1.20;99.90;;;;;;5095495;28;20010;-73
2023/01/25 12:09:31;;;;;;;50.33;30.33;;;1.20;99.90;;;;;;5094365;28;20116;-73
2023/01/25 12:12:15;;;;;;;43.45;29.85;;;1.20;99.90;;;;;;5094407;28;20039;-73
2023/01/25 12:15:14;;;;;;;44.05;27.85;;;1.20;99.90;;;;;;5095155;28;20043;-73
2023/01/25 12:17:48;;;;;;;45.83;27.02;;;1.30;99.90;;;;;;5094537;28;20057;-73
2023/01/25 12:20:51;;;;;;;48.00;28.77;;;1.40;99.90;;;;;;5094181;28;20059;-73
2023/01/25 12:23:42;;;;;;;45.03;27.70;;;1.30;99.90;;;;;;5095886;28;20059;-73
2023/01/25 12:26:21;;;;;;;45.40;26.88;;;1.30;99.90;;;;;;5095590;28;20131;-72
2023/01/25 12:28:58;;;;;;;42.42;27.13;;;1.20;99.90;;;;;;5082895;28;20108;-71
2023/01/25 12:31:37;;;;;;;47.25;26.25;;;1.90;99.90;;;;;;5090548;28;20112;-72
2023/01/25 12:34:13;;;;;;;45.28;28.70;;;1.40;99.90;;;;;;5088557;28;20047;-72
2023/01/25 12:36:43;;;;;;;43.90;29.33;;;1.40;99.90;;;;;;5093189;28;20443;-71
2023/01/25 12:39:20;;;;;;;46.65;28.23;;;1.40;99.90;;;;;;5096345;28;20128;-72
2023/01/25 12:41:50;;;;;;;43.90;28.00;;;1.50;99.90;;;;;;5093937;28;20082;-72
2023/01/25 12:44:19;;;;;;;39.60;24.85;;;1.50;99.90;;;;;;5095160;28;20051;-72
2023/01/25 12:47:07;;;;;;;46.67;28.08;;;1.60;99.90;;;;;;5092722;28;20051;-72
2023/01/25 12:49:47;;;;;;;46.70;28.30;;;1.60;99.90;;;;;;5093113;28;20039;-72